Ncc Najd — HZAK — position and weather

sailwx.info

Track history (hours):
 
Tides and Currents Weather Stations Pressure Air Temp Water Temp Dewpoint Dewpoint Depression Visibility Wind Speed Wind Dir Waves Ship Positions

Ncc Najd

Last reported at 2017-Nov-12 09:46 UTC. Time now 2017-Nov-18 20:04 UTC.
Position N 31°06' E 122°26'.

Length 183 m; draft 8 m.

Type: Tanker. MMSI: 403579000.

Date/timePositionNaut miles runAvg speedWind from/ knotsBaromVisibWave heightAir tempDewpointWater temp
2017-Nov-12 09:46N 31°06' E 122°26'412.9
2017-Nov-12 09:28N 31°06' E 122°22'511.0
2017-Nov-12 09:00N 31°07' E 122°16'611.4
2017-Nov-12 08:29N 31°11' E 122°10'612.7
2017-Nov-12 07:59N 31°14' E 122°04'613.2
2017-Nov-12 07:30N 31°15' E 121°57'713.9
2017-Nov-12 07:01N 31°17' E 121°49'713.5
2017-Nov-12 06:30N 31°20' E 121°42'611.9
2017-Nov-12 06:01N 31°23' E 121°36'611.7
2017-Nov-12 05:31N 31°26' E 121°30'510.3
2017-Nov-12 05:01N 31°29' E 121°26'612.0
2017-Nov-12 04:30N 31°33' E 121°20'3 6.6
2017-Nov-12 04:00N 31°35' E 121°17'0 0.0
2017-Nov-12 03:22N 31°35' E 121°17'0 0.0
2017-Nov-12 02:58N 31°35' E 121°17'0 0.0
2017-Nov-12 02:16N 31°35' E 121°17'0 0.0
2017-Nov-12 01:58N 31°35' E 121°17'0 0.0
2017-Nov-12 01:28N 31°35' E 121°17'0 0.0
2017-Nov-12 00:55N 31°35' E 121°17'0 0.0
2017-Nov-12 00:28N 31°35' E 121°17'0 0.0
2017-Nov-11 23:58N 31°35' E 121°17'0 0.0
2017-Nov-11 23:19N 31°35' E 121°17'0 0.0
2017-Nov-11 22:58N 31°35' E 121°17'0 0.0
2017-Nov-11 22:28N 31°35' E 121°17'0 0.0
2017-Nov-11 21:52N 31°35' E 121°17'0 0.0
2017-Nov-11 21:28N 31°35' E 121°17'0 0.0
2017-Nov-11 20:58N 31°35' E 121°17'0 0.0
2017-Nov-11 20:25N 31°35' E 121°17'0 0.0
2017-Nov-11 19:58N 31°35' E 121°17'0 0.0
2017-Nov-11 19:28N 31°35' E 121°17'0 0.0
2017-Nov-11 18:58N 31°35' E 121°17'0 0.0
2017-Nov-11 18:22N 31°35' E 121°17'0 0.0
2017-Nov-11 17:58N 31°35' E 121°17'0 0.0
2017-Nov-11 17:28N 31°35' E 121°17'0 0.0
2017-Nov-11 16:58N 31°35' E 121°17'0 0.0
2017-Nov-11 16:19N 31°35' E 121°17'0 0.0
2017-Nov-11 15:55N 31°35' E 121°17'0 0.0
2017-Nov-11 15:28N 31°35' E 121°17'0 0.0
2017-Nov-11 14:58N 31°35' E 121°17'0 0.0
2017-Nov-11 14:28N 31°35' E 121°17'0 0.0
2017-Nov-11 13:55N 31°35' E 121°17'0 0.0
2017-Nov-11 13:28N 31°35' E 121°17'0 0.0
2017-Nov-11 12:58N 31°35' E 121°17'0 0.0
2017-Nov-11 12:28N 31°35' E 121°17'0 0.0
2017-Nov-11 11:55N 31°35' E 121°17'0 0.0
2017-Nov-11 11:28N 31°35' E 121°17'0 0.0
2017-Nov-11 10:55N 31°35' E 121°17'0 0.0
2017-Nov-11 10:28N 31°35' E 121°17'0 0.0
2017-Nov-11 09:58N 31°35' E 121°17'0 0.0
2017-Nov-11 09:22N 31°35' E 121°17'0 0.0
2017-Nov-11 08:55N 31°35' E 121°17'0 0.0
2017-Nov-11 08:28N 31°35' E 121°17'0 0.0
2017-Nov-11 08:01N 31°35' E 121°17'1 2.7
2017-Nov-11 07:30N 31°36' E 121°16'510.0
2017-Nov-11 07:01N 31°40' E 121°12'713.0
2017-Nov-11 06:30N 31°44' E 121°06'3311.9
2017-Nov-11 03:45N 32°01' E 120°33'513.8
2017-Nov-11 03:23N 32°02' E 120°27'  
2017-Nov-08 10:25N 32°01' E 120°24'614.2
2017-Nov-08 10:00N 32°02' E 120°31'3111.9
2017-Nov-08 07:22N 31°46' E 121°03'614.7
2017-Nov-08 06:57N 31°42' E 121°09'714.6
2017-Nov-08 06:30N 31°38' E 121°15'714.8
2017-Nov-08 06:01N 31°33' E 121°20'611.8
2017-Nov-08 05:30N 31°29' E 121°26'5 9.6
2017-Nov-08 05:00N 31°26' E 121°30'5 9.3
2017-Nov-08 04:31N 31°23' E 121°35'5 9.2
2017-Nov-08 04:01N 31°21' E 121°39'510.2
2017-Nov-08 03:30N 31°19' E 121°45'713.2
2017-Nov-08 03:01N 31°16' E 121°52'612.2
2017-Nov-08 02:30N 31°15' E 121°59'711.4
2017-Nov-08 01:54N 31°13' E 122°07'410.5
2017-Nov-08 01:28N 31°11' E 122°11'4 9.1
2017-Nov-08 00:59N 31°08' E 122°15'510.6
2017-Nov-08 00:30N 31°06' E 122°21'5 9.7
2017-Nov-08 00:00N 31°07' E 122°26'4 7.9
2017-Nov-07 23:30N 31°07' E 122°31'510.5
2017-Nov-07 23:00N 31°06' E 122°37'1 2.0
2017-Nov-07 22:30N 31°06' E 122°38'4 7.6
2017-Nov-07 22:01N 31°07' E 122°42'5 9.2
2017-Nov-07 21:27N 31°08' E 122°48'4 8.4
2017-Nov-07 21:00N 31°10' E 122°51'4 7.7
2017-Nov-07 20:30N 31°14' E 122°53'713.6
2017-Nov-07 20:00N 31°19' E 122°58'713.2
2017-Nov-07 19:27N 31°25' E 123°03'1912.6
2017-Nov-07 17:58N 31°42' E 123°13'612.3
2017-Nov-07 17:28N 31°48' E 123°15'612.3
2017-Nov-07 16:57N 31°53' E 123°19'712.5
2017-Nov-07 16:22N 31°59' E 123°24'  
Track history (hours):
 
Tides and Currents Weather Stations Pressure Air Temp Water Temp Dewpoint Dewpoint Depression Visibility Wind Speed Wind Dir Waves Ship Positions

Ncc Najd

Last reported at 2017-Nov-12 09:46 UTC. Time now 2017-Nov-18 20:04 UTC.
Position N 31°06' E 122°26'.

Length 183 m; draft 8 m.

Type: Tanker. MMSI: 403579000.

Date/timePositionNaut miles runAvg speedWind from/ knotsBaromVisibWave heightAir tempDewpointWater temp
2017-Nov-12 09:46N 31°06' E 122°26'412.9
2017-Nov-12 09:28N 31°06' E 122°22'511.0
2017-Nov-12 09:00N 31°07' E 122°16'611.4
2017-Nov-12 08:29N 31°11' E 122°10'612.7
2017-Nov-12 07:59N 31°14' E 122°04'613.2
2017-Nov-12 07:30N 31°15' E 121°57'713.9
2017-Nov-12 07:01N 31°17' E 121°49'713.5
2017-Nov-12 06:30N 31°20' E 121°42'611.9
2017-Nov-12 06:01N 31°23' E 121°36'611.7
2017-Nov-12 05:31N 31°26' E 121°30'510.3
2017-Nov-12 05:01N 31°29' E 121°26'612.0
2017-Nov-12 04:30N 31°33' E 121°20'3 6.6
2017-Nov-12 04:00N 31°35' E 121°17'0 0.0
2017-Nov-12 03:22N 31°35' E 121°17'0 0.0
2017-Nov-12 02:58N 31°35' E 121°17'0 0.0
2017-Nov-12 02:16N 31°35' E 121°17'0 0.0
2017-Nov-12 01:58N 31°35' E 121°17'0 0.0
2017-Nov-12 01:28N 31°35' E 121°17'0 0.0
2017-Nov-12 00:55N 31°35' E 121°17'0 0.0
2017-Nov-12 00:28N 31°35' E 121°17'0 0.0
2017-Nov-11 23:58N 31°35' E 121°17'0 0.0
2017-Nov-11 23:19N 31°35' E 121°17'0 0.0
2017-Nov-11 22:58N 31°35' E 121°17'0 0.0
2017-Nov-11 22:28N 31°35' E 121°17'0 0.0
2017-Nov-11 21:52N 31°35' E 121°17'0 0.0
2017-Nov-11 21:28N 31°35' E 121°17'0 0.0
2017-Nov-11 20:58N 31°35' E 121°17'0 0.0
2017-Nov-11 20:25N 31°35' E 121°17'0 0.0
2017-Nov-11 19:58N 31°35' E 121°17'0 0.0
2017-Nov-11 19:28N 31°35' E 121°17'0 0.0
2017-Nov-11 18:58N 31°35' E 121°17'0 0.0
2017-Nov-11 18:22N 31°35' E 121°17'0 0.0
2017-Nov-11 17:58N 31°35' E 121°17'0 0.0
2017-Nov-11 17:28N 31°35' E 121°17'0 0.0
2017-Nov-11 16:58N 31°35' E 121°17'0 0.0
2017-Nov-11 16:19N 31°35' E 121°17'0 0.0
2017-Nov-11 15:55N 31°35' E 121°17'0 0.0
2017-Nov-11 15:28N 31°35' E 121°17'0 0.0
2017-Nov-11 14:58N 31°35' E 121°17'0 0.0
2017-Nov-11 14:28N 31°35' E 121°17'0 0.0
2017-Nov-11 13:55N 31°35' E 121°17'0 0.0
2017-Nov-11 13:28N 31°35' E 121°17'0 0.0
2017-Nov-11 12:58N 31°35' E 121°17'0 0.0
2017-Nov-11 12:28N 31°35' E 121°17'0 0.0
2017-Nov-11 11:55N 31°35' E 121°17'0 0.0
2017-Nov-11 11:28N 31°35' E 121°17'0 0.0
2017-Nov-11 10:55N 31°35' E 121°17'0 0.0
2017-Nov-11 10:28N 31°35' E 121°17'0 0.0
2017-Nov-11 09:58N 31°35' E 121°17'0 0.0
2017-Nov-11 09:22N 31°35' E 121°17'0 0.0
2017-Nov-11 08:55N 31°35' E 121°17'0 0.0
2017-Nov-11 08:28N 31°35' E 121°17'0 0.0
2017-Nov-11 08:01N 31°35' E 121°17'1 2.7
2017-Nov-11 07:30N 31°36' E 121°16'510.0
2017-Nov-11 07:01N 31°40' E 121°12'713.0
2017-Nov-11 06:30N 31°44' E 121°06'3311.9
2017-Nov-11 03:45N 32°01' E 120°33'513.8
2017-Nov-11 03:23N 32°02' E 120°27'  
2017-Nov-08 10:25N 32°01' E 120°24'614.2
2017-Nov-08 10:00N 32°02' E 120°31'3111.9
2017-Nov-08 07:22N 31°46' E 121°03'614.7
2017-Nov-08 06:57N 31°42' E 121°09'714.6
2017-Nov-08 06:30N 31°38' E 121°15'714.8
2017-Nov-08 06:01N 31°33' E 121°20'611.8
2017-Nov-08 05:30N 31°29' E 121°26'5 9.6
2017-Nov-08 05:00N 31°26' E 121°30'5 9.3
2017-Nov-08 04:31N 31°23' E 121°35'5 9.2
2017-Nov-08 04:01N 31°21' E 121°39'510.2
2017-Nov-08 03:30N 31°19' E 121°45'713.2
2017-Nov-08 03:01N 31°16' E 121°52'612.2
2017-Nov-08 02:30N 31°15' E 121°59'711.4
2017-Nov-08 01:54N 31°13' E 122°07'410.5
2017-Nov-08 01:28N 31°11' E 122°11'4 9.1
2017-Nov-08 00:59N 31°08' E 122°15'510.6
2017-Nov-08 00:30N 31°06' E 122°21'5 9.7
2017-Nov-08 00:00N 31°07' E 122°26'4 7.9
2017-Nov-07 23:30N 31°07' E 122°31'510.5
2017-Nov-07 23:00N 31°06' E 122°37'1 2.0
2017-Nov-07 22:30N 31°06' E 122°38'4 7.6
2017-Nov-07 22:01N 31°07' E 122°42'5 9.2
2017-Nov-07 21:27N 31°08' E 122°48'4 8.4
2017-Nov-07 21:00N 31°10' E 122°51'4 7.7
2017-Nov-07 20:30N 31°14' E 122°53'713.6
2017-Nov-07 20:00N 31°19' E 122°58'713.2
2017-Nov-07 19:27N 31°25' E 123°03'1912.6
2017-Nov-07 17:58N 31°42' E 123°13'612.3
2017-Nov-07 17:28N 31°48' E 123°15'612.3
2017-Nov-07 16:57N 31°53' E 123°19'712.5
2017-Nov-07 16:22N 31°59' E 123°24'  

Dump ship's entire track history